createdAt,value
2023-03-27T00:01:31.111Z,66.20
2023-03-27T00:04:09.516Z,66.50
2023-03-27T00:06:49.346Z,66.53
2023-03-27T00:09:29.164Z,66.56
2023-03-27T00:12:08.322Z,66.59
2023-03-27T00:14:46.522Z,66.59
2023-03-27T00:17:24.667Z,66.54
2023-03-27T00:20:02.740Z,66.74
2023-03-27T00:22:39.915Z,66.88
2023-03-27T00:25:23.368Z,66.92
2023-03-27T00:28:02.240Z,66.94
2023-03-27T00:30:39.271Z,67.15
2023-03-27T00:33:17.162Z,67.20
2023-03-27T00:35:55.203Z,67.13
2023-03-27T00:38:32.479Z,67.35
2023-03-27T00:41:10.632Z,67.49
2023-03-27T00:43:49.952Z,67.81
2023-03-27T00:46:46.495Z,67.80
2023-03-27T00:49:29.168Z,68.06
2023-03-27T00:52:02.841Z,68.07
2023-03-27T00:54:41.865Z,68.01
2023-03-27T00:57:22.409Z,68.20
2023-03-27T01:00:02.478Z,68.06
2023-03-27T01:02:39.442Z,68.14
2023-03-27T01:05:19.023Z,68.18
2023-03-27T01:08:00.553Z,68.44
2023-03-27T01:10:59.656Z,68.64
2023-03-27T01:14:26.656Z,68.94
2023-03-27T01:17:29.791Z,69.17
2023-03-27T01:20:37.465Z,69.86
2023-03-27T01:23:59.463Z,69.73
2023-03-27T01:26:58.465Z,69.93
2023-03-27T01:29:36.780Z,70.23
2023-03-27T01:32:59.651Z,70.19
2023-03-27T01:36:01.235Z,70.42
2023-03-27T01:38:56.823Z,70.64
2023-03-27T01:42:06.653Z,70.56
2023-03-27T01:44:57.781Z,70.72
2023-03-27T01:47:58.888Z,70.71
2023-03-27T01:51:01.353Z,70.61
2023-03-27T01:53:42.794Z,70.68
2023-03-27T01:56:27.735Z,70.88
2023-03-27T01:59:09.628Z,70.91
2023-03-27T02:01:51.015Z,71.28
2023-03-27T02:04:37.163Z,71.30
2023-03-27T02:07:25.719Z,71.34
2023-03-27T02:10:08.673Z,71.26
2023-03-27T02:12:54.606Z,71.09
2023-03-27T02:15:38.960Z,71.13
2023-03-27T02:18:19.564Z,70.99
2023-03-27T02:20:55.598Z,70.99
2023-03-27T02:23:33.168Z,70.79
2023-03-27T02:26:14.028Z,70.98
2023-03-27T02:29:28.686Z,71.31
2023-03-27T02:32:41.113Z,71.55
2023-03-27T02:35:41.674Z,71.37
2023-03-27T02:38:51.866Z,71.55
2023-03-27T02:41:40.785Z,71.53
2023-03-27T02:44:47.272Z,71.59
2023-03-27T02:47:53.634Z,71.85
2023-03-27T02:50:44.538Z,71.60
2023-03-27T02:53:28.818Z,71.82
2023-03-27T02:56:08.076Z,71.97
2023-03-27T02:59:01.893Z,71.98
2023-03-27T03:01:38.630Z,72.13
2023-03-27T03:04:33.280Z,72.13
2023-03-27T03:07:19.044Z,71.97
2023-03-27T03:09:59.119Z,71.99
2023-03-27T03:12:36.802Z,71.96
2023-03-27T03:15:14.320Z,72.34
2023-03-27T03:17:52.298Z,72.21
2023-03-27T03:20:22.924Z,72.46
2023-03-27T03:22:54.697Z,72.31
2023-03-27T03:25:34.156Z,72.38
2023-03-27T03:28:12.044Z,72.50
2023-03-27T03:30:52.294Z,72.46
2023-03-27T03:33:30.485Z,72.51
2023-03-27T03:36:09.837Z,72.58
2023-03-27T03:38:47.303Z,72.91
2023-03-27T03:41:24.719Z,73.22
2023-03-27T03:44:01.783Z,73.38
2023-03-27T03:46:39.463Z,73.18
2023-03-27T03:49:16.920Z,73.18
2023-03-27T03:52:04.279Z,72.81
2023-03-27T03:54:44.986Z,73.16
2023-03-27T03:57:25.482Z,73.38
2023-03-27T03:59:56.041Z,73.56
2023-03-27T04:02:35.297Z,73.37
2023-03-27T04:05:08.989Z,73.66
2023-03-27T04:07:43.841Z,73.75
2023-03-27T04:10:19.624Z,73.68
2023-03-27T04:12:59.013Z,73.61
2023-03-27T04:15:36.900Z,73.75
2023-03-27T04:18:15.616Z,73.86
2023-03-27T04:20:55.111Z,73.86
2023-03-27T04:23:34.803Z,73.89
2023-03-27T04:26:13.386Z,73.73
2023-03-27T04:28:52.183Z,73.61
2023-03-27T04:31:23.360Z,74.08
2023-03-27T04:34:00.698Z,73.97
2023-03-27T04:36:39.066Z,74.09
2023-03-27T04:39:17.737Z,73.76
2023-03-27T04:41:55.345Z,73.90
2023-03-27T04:44:26.871Z,73.57
2023-03-27T04:47:02.939Z,73.60
2023-03-27T04:49:49.743Z,73.57
2023-03-27T04:52:21.137Z,73.63
2023-03-27T04:54:59.701Z,73.57
2023-03-27T04:57:38.813Z,73.58
2023-03-27T05:00:17.886Z,73.93
2023-03-27T05:02:55.247Z,73.80
2023-03-27T05:05:33.381Z,73.86
2023-03-27T05:08:11.816Z,73.88
2023-03-27T05:10:48.859Z,73.96
2023-03-27T05:13:26.222Z,74.11
2023-03-27T05:16:04.300Z,73.69
2023-03-27T05:18:42.495Z,74.30
2023-03-27T05:21:19.200Z,74.50
2023-03-27T05:23:56.828Z,74.74
2023-03-27T05:26:34.089Z,74.52
2023-03-27T05:29:06.809Z,74.16
2023-03-27T05:31:41.848Z,74.27
2023-03-27T05:34:21.369Z,74.08
2023-03-27T05:36:59.161Z,73.90
2023-03-27T05:39:37.086Z,73.89
2023-03-27T05:42:15.200Z,74.02
2023-03-27T05:44:52.541Z,73.76
2023-03-27T05:47:30.543Z,73.55
2023-03-27T05:50:09.547Z,73.41
2023-03-27T05:52:47.281Z,72.79
2023-03-27T05:55:27.559Z,72.59
2023-03-27T05:58:10.250Z,72.32
2023-03-27T06:00:47.957Z,72.77
2023-03-27T06:03:25.762Z,72.92
2023-03-27T06:06:07.831Z,72.93
2023-03-27T06:08:45.211Z,72.51
2023-03-27T06:11:23.672Z,72.91
2023-03-27T06:14:01.994Z,72.34
2023-03-27T06:16:40.784Z,72.60
2023-03-27T06:19:18.957Z,72.73
2023-03-27T06:21:50.454Z,72.64
2023-03-27T06:24:24.730Z,72.61
2023-03-27T06:27:04.056Z,72.44
2023-03-27T06:29:41.988Z,72.09
2023-03-27T06:32:19.323Z,71.74
2023-03-27T06:34:51.482Z,71.13
2023-03-27T06:37:35.651Z,70.12
2023-03-27T06:40:17.613Z,69.40
2023-03-27T06:43:04.263Z,69.15
2023-03-27T06:45:44.911Z,68.54
2023-03-27T06:48:25.338Z,68.50
2023-03-27T06:51:03.279Z,68.62
2023-03-27T06:53:41.777Z,69.18
2023-03-27T06:56:18.151Z,68.89
2023-03-27T06:58:48.742Z,69.72
2023-03-27T07:01:23.900Z,69.72
2023-03-27T07:04:01.179Z,69.52
2023-03-27T07:06:39.699Z,69.35
2023-03-27T07:09:11.445Z,69.69
2023-03-27T07:11:45.876Z,69.72
2023-03-27T07:14:24.746Z,69.42
2023-03-27T07:17:02.011Z,68.48
2023-03-27T07:19:39.747Z,68.31
2023-03-27T07:22:17.600Z,67.90
2023-03-27T07:24:57.517Z,66.99
2023-03-27T07:27:36.216Z,65.55
2023-03-27T07:30:15.638Z,63.77
2023-03-27T07:32:52.746Z,61.87
2023-03-27T07:35:32.170Z,61.83
2023-03-27T07:38:04.208Z,60.95
2023-03-27T07:40:42.432Z,59.15
2023-03-27T07:43:14.389Z,59.47
2023-03-27T07:45:47.159Z,57.96
2023-03-27T07:48:25.532Z,58.88
2023-03-27T07:53:47.341Z,57.74
2023-03-27T07:56:27.504Z,56.36
2023-03-27T07:59:06.087Z,56.89
2023-03-27T08:01:39.361Z,56.70
2023-03-27T08:04:18.922Z,56.35
2023-03-27T08:06:58.096Z,56.28
2023-03-27T08:09:37.156Z,55.92
2023-03-27T08:12:16.536Z,54.80
2023-03-27T08:14:55.429Z,54.66
2023-03-27T08:17:34.509Z,54.22
2023-03-27T08:20:16.076Z,53.13
2023-03-27T08:22:55.926Z,55.53
2023-03-27T08:25:37.079Z,56.03
2023-03-27T08:28:16.128Z,55.14
2023-03-27T08:30:54.224Z,54.71
2023-03-27T08:33:37.903Z,55.54
2023-03-27T08:36:17.313Z,55.53
2023-03-27T08:38:56.179Z,55.41
2023-03-27T08:41:45.840Z,55.53
2023-03-27T08:44:26.836Z,55.80
2023-03-27T08:47:04.842Z,56.46
2023-03-27T08:49:53.944Z,56.45
2023-03-27T08:52:33.606Z,56.44
2023-03-27T08:55:41.341Z,56.68
2023-03-27T08:58:26.523Z,56.45
2023-03-27T09:01:18.775Z,56.23
2023-03-27T09:04:28.439Z,56.72
2023-03-27T09:07:41.944Z,56.39
2023-03-27T09:11:15.385Z,55.79
2023-03-27T09:13:53.287Z,56.13
2023-03-27T09:16:41.952Z,56.00
2023-03-27T09:20:19.454Z,55.30
2023-03-27T09:23:27.714Z,56.12
2023-03-27T09:26:13.032Z,55.78
2023-03-27T09:29:10.400Z,55.83
2023-03-27T09:31:54.471Z,55.86
2023-03-27T09:34:34.428Z,55.43
2023-03-27T09:37:15.348Z,55.38
2023-03-27T09:39:55.420Z,55.39
2023-03-27T09:42:42.724Z,55.51
2023-03-27T09:45:22.258Z,55.75
2023-03-27T09:48:00.666Z,56.56
2023-03-27T09:50:50.121Z,56.04
2023-03-27T09:53:28.845Z,56.17
2023-03-27T09:56:15.593Z,56.12
2023-03-27T09:58:53.682Z,56.16
2023-03-27T10:01:36.772Z,56.20
2023-03-27T10:04:23.694Z,55.96
2023-03-27T10:07:24.389Z,55.71
2023-03-27T10:10:21.502Z,55.79
2023-03-27T10:13:06.320Z,54.77
2023-03-27T10:15:45.262Z,54.60
2023-03-27T10:18:34.481Z,54.30
2023-03-27T10:21:19.675Z,54.11
2023-03-27T10:24:00.709Z,53.63
2023-03-27T10:26:34.977Z,53.47
2023-03-27T10:29:28.215Z,53.70
2023-03-27T10:32:07.382Z,53.59
2023-03-27T10:34:53.466Z,53.51
2023-03-27T10:37:37.871Z,53.11
2023-03-27T10:40:28.400Z,53.27
2023-03-27T10:43:41.002Z,53.11
2023-03-27T10:46:30.915Z,53.38
2023-03-27T10:49:21.421Z,53.41
2023-03-27T10:52:18.647Z,53.27
2023-03-27T10:55:33.507Z,51.73
2023-03-27T10:58:25.107Z,51.97
2023-03-27T11:01:22.222Z,51.59
2023-03-27T11:04:11.162Z,50.42
2023-03-27T11:06:53.052Z,50.03
2023-03-27T11:09:42.881Z,49.98
2023-03-27T11:12:24.634Z,49.84
2023-03-27T11:15:41.545Z,49.55
2023-03-27T11:18:29.244Z,49.86
2023-03-27T11:21:36.220Z,50.42
2023-03-27T11:24:33.129Z,49.76
2023-03-27T11:27:29.374Z,49.92
2023-03-27T11:30:33.445Z,49.65
2023-03-27T11:33:44.677Z,48.62
2023-03-27T11:36:45.711Z,48.14
2023-03-27T11:39:46.713Z,48.15
2023-03-27T11:42:22.398Z,47.88
2023-03-27T11:45:05.195Z,48.17
2023-03-27T11:48:14.584Z,46.78
2023-03-27T11:51:33.712Z,46.65
2023-03-27T11:54:50.626Z,47.06
2023-03-27T11:57:33.734Z,47.15
2023-03-27T12:00:29.102Z,47.56
2023-03-27T12:03:37.747Z,48.07
2023-03-27T12:06:34.296Z,48.26
2023-03-27T12:09:48.351Z,47.61
2023-03-27T12:13:38.683Z,45.57
2023-03-27T12:16:58.481Z,45.66
2023-03-27T12:19:53.280Z,45.64
2023-03-27T12:23:16.358Z,45.98
2023-03-27T12:26:22.595Z,45.67
2023-03-27T12:29:38.783Z,46.11
2023-03-27T12:33:09.725Z,44.33
2023-03-27T12:35:57.992Z,45.41
2023-03-27T12:38:42.921Z,44.17
2023-03-27T12:41:33.380Z,44.61
2023-03-27T12:44:18.849Z,44.87
2023-03-27T12:47:14.930Z,44.68
2023-03-27T12:49:58.786Z,44.99
2023-03-27T12:52:38.765Z,45.10
2023-03-27T12:55:19.420Z,45.26
2023-03-27T12:57:52.667Z,45.32
2023-03-27T13:00:33.459Z,45.03
2023-03-27T13:03:49.092Z,44.88
2023-03-27T13:07:01.131Z,44.59
2023-03-27T13:09:45.390Z,44.44
2023-03-27T13:12:50.623Z,44.67
2023-03-27T13:16:12.598Z,44.30
2023-03-27T13:19:34.041Z,43.69
2023-03-27T13:22:41.897Z,43.94
2023-03-27T13:25:47.029Z,44.12
2023-03-27T13:28:39.113Z,44.61
2023-03-27T13:31:49.653Z,45.45
2023-03-27T13:34:41.814Z,46.27
2023-03-27T13:37:17.851Z,46.68
2023-03-27T13:40:02.850Z,46.75
2023-03-27T13:42:47.850Z,47.15
2023-03-27T13:46:00.576Z,47.67
2023-03-27T13:48:50.882Z,47.97
2023-03-27T13:52:13.402Z,48.05
2023-03-27T13:55:19.286Z,48.09
2023-03-27T13:58:33.440Z,48.15
2023-03-27T14:01:45.911Z,48.99
2023-03-27T14:04:53.803Z,48.02
2023-03-27T14:07:56.887Z,47.33
2023-03-27T14:10:40.895Z,47.74
2023-03-27T14:13:40.468Z,48.58
2023-03-27T14:16:38.045Z,50.15
2023-03-27T14:19:52.260Z,50.99
2023-03-27T14:22:57.449Z,51.46
2023-03-27T14:25:46.152Z,50.85
2023-03-27T14:28:59.616Z,50.72
2023-03-27T14:31:36.188Z,51.48
2023-03-27T14:34:17.477Z,52.23
2023-03-27T14:36:52.309Z,53.17
2023-03-27T14:39:28.212Z,53.71
2023-03-27T14:42:03.715Z,54.64
2023-03-27T14:44:39.381Z,55.34
2023-03-27T14:47:27.452Z,55.96
2023-03-27T14:50:02.198Z,56.35
2023-03-27T14:52:39.822Z,56.62
2023-03-27T14:55:19.145Z,56.61
2023-03-27T14:57:59.286Z,56.79
2023-03-27T15:00:39.943Z,57.11
2023-03-27T15:03:26.953Z,57.57
2023-03-27T15:06:15.738Z,57.60
2023-03-27T15:09:00.062Z,57.79
2023-03-27T15:11:44.692Z,58.05
2023-03-27T15:14:29.684Z,57.87
2023-03-27T15:17:19.588Z,58.67
2023-03-27T15:20:14.858Z,58.97
2023-03-27T15:23:08.848Z,58.27
2023-03-27T15:25:59.134Z,58.36
2023-03-27T15:29:05.391Z,57.98
2023-03-27T15:31:49.619Z,57.48
2023-03-27T15:34:35.004Z,57.25
2023-03-27T15:37:23.953Z,57.05
2023-03-27T15:40:15.960Z,57.11
2023-03-27T15:43:03.581Z,57.12
2023-03-27T15:46:23.001Z,57.33
2023-03-27T15:49:30.386Z,57.21
2023-03-27T15:52:34.556Z,57.41
2023-03-27T15:55:14.271Z,57.09
2023-03-27T15:57:52.124Z,56.74
2023-03-27T16:00:31.965Z,56.85
2023-03-27T16:03:17.763Z,56.95
2023-03-27T16:06:01.783Z,56.81
2023-03-27T16:08:43.730Z,57.15
2023-03-27T16:11:47.885Z,56.65
2023-03-27T16:14:34.537Z,56.96
2023-03-27T16:17:22.094Z,57.09
2023-03-27T16:20:27.289Z,57.31
2023-03-27T16:23:07.684Z,57.48
2023-03-27T16:25:48.876Z,57.76
2023-03-27T16:28:23.534Z,57.82
2023-03-27T16:31:00.915Z,58.01
2023-03-27T16:33:38.777Z,58.08
2023-03-27T16:36:27.636Z,58.20
2023-03-27T16:39:07.426Z,58.41
2023-03-27T16:41:44.880Z,58.36
2023-03-27T16:44:22.436Z,58.25
2023-03-27T16:46:59.925Z,57.90
2023-03-27T16:49:31.786Z,58.17
2023-03-27T16:52:05.098Z,58.94
2023-03-27T16:54:43.120Z,58.76
2023-03-27T16:57:22.049Z,59.10
2023-03-27T16:59:55.097Z,58.98
2023-03-27T17:02:36.841Z,59.55
2023-03-27T17:05:16.570Z,59.37
2023-03-27T17:07:52.934Z,58.20
2023-03-27T17:10:31.619Z,56.79
2023-03-27T17:13:10.493Z,55.80
2023-03-27T17:15:51.607Z,56.05
2023-03-27T17:18:30.103Z,55.98
2023-03-27T17:21:09.392Z,56.24
2023-03-27T17:23:49.134Z,56.31
2023-03-27T17:26:31.604Z,56.69
2023-03-27T17:29:15.273Z,56.95
2023-03-27T17:31:53.891Z,56.64
2023-03-27T17:34:32.435Z,56.81
2023-03-27T17:37:12.890Z,57.19
2023-03-27T17:39:51.157Z,57.17
2023-03-27T17:42:29.890Z,57.14
2023-03-27T17:45:00.610Z,57.46
2023-03-27T17:47:36.689Z,57.46
2023-03-27T17:50:08.832Z,57.47
2023-03-27T17:52:45.515Z,57.69
2023-03-27T17:55:24.027Z,57.94
2023-03-27T17:58:09.421Z,57.90
2023-03-27T18:00:45.886Z,58.05
2023-03-27T18:03:26.049Z,58.08
2023-03-27T18:06:05.740Z,58.16
2023-03-27T18:08:44.443Z,58.04
2023-03-27T18:11:23.354Z,58.27
2023-03-27T18:14:00.801Z,58.18
2023-03-27T18:16:38.479Z,57.65
2023-03-27T18:19:17.765Z,57.32
2023-03-27T18:21:56.107Z,56.02
2023-03-27T18:24:34.962Z,54.63
2023-03-27T18:27:13.632Z,53.84
2023-03-27T18:29:51.609Z,53.66
2023-03-27T18:32:29.529Z,53.98
2023-03-27T18:35:01.168Z,54.47
2023-03-27T18:37:40.493Z,54.40
2023-03-27T18:40:20.671Z,54.42
2023-03-27T18:42:59.573Z,54.57
2023-03-27T18:45:31.958Z,54.60
2023-03-27T18:48:08.672Z,54.54
2023-03-27T18:50:46.096Z,55.20
2023-03-27T18:53:24.717Z,54.67
2023-03-27T18:56:03.790Z,54.98
2023-03-27T18:58:42.528Z,55.53
2023-03-27T19:01:20.084Z,55.22
2023-03-27T19:03:57.671Z,55.39
2023-03-27T19:06:37.085Z,55.15
2023-03-27T19:09:14.647Z,55.25
2023-03-27T19:11:55.840Z,55.29
2023-03-27T19:14:33.615Z,55.40
2023-03-27T19:17:16.230Z,55.40
2023-03-27T19:19:54.833Z,55.37
2023-03-27T19:22:31.952Z,55.57
2023-03-27T19:25:09.668Z,55.25
2023-03-27T19:27:47.623Z,55.80
2023-03-27T19:30:25.376Z,55.33
2023-03-27T19:33:04.810Z,55.41
2023-03-27T19:35:43.227Z,55.67
2023-03-27T19:38:16.960Z,55.71
2023-03-27T19:40:50.374Z,55.52
2023-03-27T19:43:28.574Z,54.72
2023-03-27T19:46:15.818Z,54.17
2023-03-27T19:48:50.458Z,54.44
2023-03-27T19:51:28.547Z,53.98
2023-03-27T19:54:06.121Z,54.08
2023-03-27T19:56:43.044Z,53.73
2023-03-27T19:59:28.195Z,54.10
2023-03-27T20:02:08.510Z,53.85
2023-03-27T20:04:45.430Z,54.23
2023-03-27T20:07:22.885Z,54.33
2023-03-27T20:10:00.021Z,54.53
2023-03-27T20:12:37.407Z,54.53
2023-03-27T20:15:14.820Z,54.64
2023-03-27T20:17:52.777Z,54.64
2023-03-27T20:20:29.748Z,54.58
2023-03-27T20:23:06.882Z,54.17
2023-03-27T20:25:44.495Z,54.21
2023-03-27T20:28:14.865Z,53.61
2023-03-27T20:30:50.145Z,54.16
2023-03-27T20:33:27.126Z,53.88
2023-03-27T20:36:04.994Z,53.93
2023-03-27T20:38:42.090Z,53.94
2023-03-27T20:41:20.294Z,54.10
2023-03-27T20:44:00.398Z,53.83
2023-03-27T20:46:39.521Z,54.04
2023-03-27T20:52:05.933Z,53.94
2023-03-27T20:54:44.117Z,53.69
2023-03-27T20:57:22.578Z,53.82
2023-03-27T20:59:59.217Z,53.77
2023-03-27T21:02:36.809Z,53.57
2023-03-27T21:05:14.309Z,53.60
2023-03-27T21:07:53.175Z,54.00
2023-03-27T21:10:30.245Z,53.88
2023-03-27T21:13:08.299Z,53.94
2023-03-27T21:15:39.395Z,53.87
2023-03-27T21:18:12.150Z,54.09
2023-03-27T21:20:49.474Z,54.20
2023-03-27T21:23:27.031Z,54.36
2023-03-27T21:26:04.364Z,54.32
2023-03-27T21:28:41.068Z,54.26
2023-03-27T21:31:15.918Z,54.55
2023-03-27T21:33:46.946Z,54.17
2023-03-27T21:36:18.015Z,54.53
2023-03-27T21:38:51.732Z,54.52
2023-03-27T21:41:31.233Z,54.56
2023-03-27T21:44:09.044Z,54.33
2023-03-27T21:46:46.943Z,54.70
2023-03-27T21:49:25.852Z,54.62
2023-03-27T21:52:02.355Z,54.56
2023-03-27T21:54:32.989Z,54.68
2023-03-27T21:57:11.308Z,54.87
2023-03-27T21:59:48.717Z,54.86
2023-03-27T22:02:18.691Z,55.09
2023-03-27T22:04:53.792Z,55.12
2023-03-27T22:07:31.325Z,55.34
2023-03-27T22:10:09.886Z,55.53
2023-03-27T22:12:47.245Z,55.83
2023-03-27T22:15:24.849Z,55.63
2023-03-27T22:18:02.067Z,55.57
2023-03-27T22:20:39.099Z,55.81
2023-03-27T22:23:16.473Z,55.83
2023-03-27T22:26:01.628Z,55.76
2023-03-27T22:28:38.924Z,55.87
2023-03-27T22:31:11.267Z,55.90
2023-03-27T22:33:51.604Z,56.15
2023-03-27T22:36:28.377Z,55.93
2023-03-27T22:39:06.158Z,56.27
2023-03-27T22:41:43.449Z,56.06
2023-03-27T22:44:14.323Z,56.10
2023-03-27T22:46:48.577Z,56.42
2023-03-27T22:49:26.748Z,56.07
2023-03-27T22:52:03.316Z,56.39
2023-03-27T22:54:34.252Z,56.49
2023-03-27T22:57:12.081Z,56.57
2023-03-27T22:59:48.845Z,56.92
2023-03-27T23:02:25.476Z,57.19
2023-03-27T23:05:03.300Z,56.99
2023-03-27T23:07:33.919Z,57.30
2023-03-27T23:10:09.974Z,57.37
2023-03-27T23:12:47.140Z,57.23
2023-03-27T23:15:30.309Z,57.41
2023-03-27T23:18:09.741Z,57.53
2023-03-27T23:20:48.234Z,57.96
2023-03-27T23:23:25.948Z,57.66
2023-03-27T23:26:03.971Z,57.91
2023-03-27T23:28:42.722Z,57.87
2023-03-27T23:31:23.790Z,58.00
2023-03-27T23:34:02.857Z,58.02
2023-03-27T23:36:39.912Z,58.21
2023-03-27T23:39:17.468Z,57.90
2023-03-27T23:41:50.066Z,58.27
2023-03-27T23:44:29.453Z,58.30
2023-03-27T23:47:07.786Z,58.42
2023-03-27T23:49:42.127Z,58.70
2023-03-27T23:52:14.532Z,58.38
2023-03-27T23:54:50.143Z,58.56
2023-03-27T23:57:26.095Z,58.82
2023-03-27T23:59:57.034Z,58.79
